Daytona Beach, Florida
Current Conditions -  °F | °C
As of 4:53 PM on Thursday 27 Nov 2014 (Local Time) from KDAB Reporting Station
Clear Clear  
Wind Chill: 17°   Ceiling: Unl
Heat Index: 17°   Visibility: 10mi
Dew Point:   Wind: 9mph
Humidity: 38%   Direction: 300°WNW
Pressure: 30.2"   Gusts: NA
Location:  29.2°N, 81.04°W
Report Text: KDAB 272153Z 30008KT 10SM CLR 17/02 A3020 RMK AO2 SLP224 T01670022
Loading
Personal Weather Stations






























Interactive Weather Map New forecast layout! Learn more

10-Day Weather Forecast

Advertisements
Track Severe Weather on mobile